CheckWX is a tool to help pilots better visualize weather data.  It is not intended as a substitute for an official pre-flight weather briefing.

22:32:31 UTC

KSYM METAR
Morehead-Rowan County Clyde A Thomas Regional Airport
Morehead, Kentucky, USA
Current

18 mins ago

KSYM 152215Z AUTO 00000KT 9SM -RA CLR 22/21 A3015 RMK AO2
Observed
Jul-15 @ 22:15 UTC
Visibility
9 SM
Flight Rules
VFR
Conditions
Light Rain
Cloud Levels
  • Clear skies
Temperature
22°C / 72°F
Dewpoint
21°C / 70°F
Humidity
94%
Altimeter
30.15" Hg
Pressure
1021.02 hPa
Previous

38 mins ago

KSYM 152155Z AUTO 00000KT 1 3/4SM -RA VV007 22/20 A3016 RMK AO2 VIS 3/4V5
Observed
Jul-15 @ 21:55 UTC
Visibility
1 3/4 SM
Flight Rules
LIFR
Conditions
Light Rain
Cloud Levels
  • Vertical visibility at 700' AGL
Temperature
22°C / 72°F
Dewpoint
20°C / 68°F
Humidity
88%
Altimeter
30.16" Hg
Pressure
1021.32 hPa
Previous

53 mins ago

KSYM 152140Z AUTO 00000KT 7SM RA CLR 22/20 A3017 RMK AO2
Observed
Jul-15 @ 21:40 UTC
Visibility
7 SM
Flight Rules
VFR
Conditions
Rain
Cloud Levels
  • Clear skies
Temperature
22°C / 72°F
Dewpoint
20°C / 68°F
Humidity
88%
Altimeter
30.17" Hg
Pressure
1021.72 hPa